createdAt,value
2019-02-23T00:01:33.725Z,103299.91
2019-02-23T00:04:06.184Z,103300.75
2019-02-23T00:06:38.052Z,103304.80
2019-02-23T00:09:10.613Z,103315.01
2019-02-23T00:11:42.548Z,103309.73
2019-02-23T00:14:14.653Z,103305.39
2019-02-23T00:16:46.679Z,103313.58
2019-02-23T00:19:24.886Z,103312.64
2019-02-23T00:21:52.663Z,103318.44
2019-02-23T00:24:24.730Z,103316.28
2019-02-23T00:26:56.541Z,103316.14
2019-02-23T00:29:28.564Z,103320.33
2019-02-23T00:32:00.356Z,103324.59
2019-02-23T00:34:32.805Z,103320.12
2019-02-23T00:37:04.610Z,103324.73
2019-02-23T00:39:36.723Z,103330.13
2019-02-23T00:42:08.513Z,103339.34
2019-02-23T00:44:40.381Z,103340.52
2019-02-23T00:47:12.155Z,103351.05
2019-02-23T00:49:44.372Z,103359.96
2019-02-23T00:52:16.179Z,103359.40
2019-02-23T00:54:48.029Z,103360.23
2019-02-23T00:57:19.808Z,103361.02
2019-02-23T00:59:51.828Z,103363.52
2019-02-23T01:02:23.579Z,103361.74
2019-02-23T01:04:56.718Z,103371.06
2019-02-23T01:07:28.530Z,103366.20
2019-02-23T01:10:00.801Z,103363.97
2019-02-23T01:12:32.656Z,103372.95
2019-02-23T01:15:05.040Z,103378.16
2019-02-23T01:17:36.924Z,103375.09
2019-02-23T01:20:11.526Z,103377.66
2019-02-23T01:22:43.307Z,103372.53
2019-02-23T01:25:15.349Z,103374.16
2019-02-23T01:27:47.291Z,103374.95
2019-02-23T01:30:19.387Z,103379.55
2019-02-23T01:32:51.177Z,103386.75
2019-02-23T01:35:23.417Z,103396.14
2019-02-23T01:37:55.167Z,103394.72
2019-02-23T01:40:27.344Z,103389.20
2019-02-23T01:42:59.106Z,103390.52
2019-02-23T01:45:41.906Z,103390.68
2019-02-23T01:48:04.636Z,103391.88
2019-02-23T01:50:37.137Z,103389.24
2019-02-23T01:53:08.903Z,103387.84
2019-02-23T01:55:40.973Z,103395.54
2019-02-23T01:58:12.761Z,103398.03
2019-02-23T02:00:44.718Z,103399.69
2019-02-23T02:03:16.716Z,103391.12
2019-02-23T02:05:48.884Z,103386.86
2019-02-23T02:08:20.613Z,103383.84
2019-02-23T02:10:52.622Z,103391.88
2019-02-23T02:13:24.543Z,103384.03
2019-02-23T02:15:56.570Z,103387.72
2019-02-23T02:18:28.330Z,103393.03
2019-02-23T02:21:00.691Z,103396.09
2019-02-23T02:23:32.517Z,103392.70
2019-02-23T02:26:04.455Z,103390.70
2019-02-23T02:28:36.304Z,103381.39
2019-02-23T02:31:08.254Z,103373.84
2019-02-23T02:34:08.895Z,103373.17
2019-02-23T02:36:41.265Z,103373.40
2019-02-23T02:39:17.528Z,103368.08
2019-02-23T02:41:49.352Z,103367.67
2019-02-23T02:44:21.158Z,103364.69
2019-02-23T02:46:52.999Z,103363.10
2019-02-23T02:49:24.753Z,103370.38
2019-02-23T02:51:56.911Z,103372.20
2019-02-23T02:54:28.640Z,103366.61
2019-02-23T02:57:00.529Z,103368.76
2019-02-23T02:59:32.283Z,103367.97
2019-02-23T03:02:04.705Z,103371.81
2019-02-23T03:04:36.825Z,103377.02
2019-02-23T03:07:09.233Z,103380.98
2019-02-23T03:09:40.973Z,103384.83
2019-02-23T03:12:13.059Z,103379.70
2019-02-23T03:14:44.805Z,103376.75
2019-02-23T03:17:17.082Z,103383.77
2019-02-23T03:19:48.806Z,103384.80
2019-02-23T03:22:21.213Z,103385.13
2019-02-23T03:24:52.976Z,103386.27
2019-02-23T03:27:25.057Z,103384.30
2019-02-23T03:29:56.849Z,103382.34
2019-02-23T03:32:28.871Z,103376.38
2019-02-23T03:35:01.924Z,103379.36
2019-02-23T03:37:35.562Z,103378.41
2019-02-23T03:40:09.089Z,103370.49
2019-02-23T03:42:41.122Z,103370.69
2019-02-23T03:45:12.860Z,103376.94
2019-02-23T03:47:44.869Z,103368.64
2019-02-23T03:50:16.611Z,103373.62
2019-02-23T03:52:49.283Z,103366.11
2019-02-23T03:55:21.060Z,103377.03
2019-02-23T03:57:53.112Z,103388.95
2019-02-23T04:00:24.887Z,103388.27
2019-02-23T04:02:56.745Z,103378.80
2019-02-23T04:05:28.519Z,103378.42
2019-02-23T04:08:00.866Z,103372.58
2019-02-23T04:10:32.665Z,103364.88
2019-02-23T04:13:04.806Z,103359.84
2019-02-23T04:15:36.565Z,103361.38
2019-02-23T04:18:09.738Z,103360.77
2019-02-23T04:20:41.556Z,103376.48
2019-02-23T04:23:13.385Z,103371.11
2019-02-23T04:25:45.191Z,103378.73
2019-02-23T04:28:17.054Z,103370.09
2019-02-23T04:30:48.822Z,103373.03
2019-02-23T04:33:20.647Z,103369.19
2019-02-23T04:35:52.421Z,103369.06
2019-02-23T04:38:24.842Z,103371.55
2019-02-23T04:40:56.584Z,103373.95
2019-02-23T04:43:28.558Z,103375.56
2019-02-23T04:46:00.428Z,103375.08
2019-02-23T04:48:32.301Z,103382.76
2019-02-23T04:51:13.780Z,103392.59
2019-02-23T04:53:37.942Z,103387.55
2019-02-23T04:56:09.728Z,103379.78
2019-02-23T04:58:41.778Z,103385.81
2019-02-23T05:01:13.582Z,103381.22
2019-02-23T05:03:45.703Z,103381.80
2019-02-23T05:06:17.476Z,103373.20
2019-02-23T05:08:49.934Z,103351.83
2019-02-23T05:11:21.755Z,103342.53
2019-02-23T05:13:54.072Z,103354.47
2019-02-23T05:16:25.827Z,103366.50
2019-02-23T05:18:57.890Z,103367.78
2019-02-23T05:21:29.829Z,103364.19
2019-02-23T05:24:02.124Z,103366.52
2019-02-23T05:26:34.021Z,103377.63
2019-02-23T05:29:05.879Z,103370.44
2019-02-23T05:31:37.933Z,103373.45
2019-02-23T05:34:09.807Z,103366.75
2019-02-23T05:36:41.556Z,103379.84
2019-02-23T05:39:13.812Z,103381.59
2019-02-23T05:41:45.633Z,103380.62
2019-02-23T05:44:17.705Z,103393.77
2019-02-23T05:46:49.468Z,103390.67
2019-02-23T05:49:21.377Z,103372.81
2019-02-23T05:51:53.145Z,103369.83
2019-02-23T05:54:24.944Z,103387.77
2019-02-23T05:56:56.718Z,103403.23
2019-02-23T05:59:28.693Z,103421.95
2019-02-23T06:02:02.256Z,103442.59
2019-02-23T06:04:34.059Z,103439.03
2019-02-23T06:07:05.829Z,103440.97
2019-02-23T06:09:38.086Z,103456.78
2019-02-23T06:12:09.986Z,103467.66
2019-02-23T06:14:43.027Z,103479.52
2019-02-23T06:17:14.777Z,103478.20
2019-02-23T06:19:46.623Z,103488.91
2019-02-23T06:22:18.384Z,103483.33
2019-02-23T06:24:50.536Z,103484.99
2019-02-23T06:27:22.319Z,103490.20
2019-02-23T06:29:54.310Z,103477.56
2019-02-23T06:32:26.082Z,103473.39
2019-02-23T06:34:58.255Z,103468.95
2019-02-23T06:37:30.138Z,103465.64
2019-02-23T06:40:02.481Z,103461.66
2019-02-23T06:42:34.237Z,103474.98
2019-02-23T06:45:06.603Z,103490.68
2019-02-23T06:47:38.398Z,103491.48
2019-02-23T06:50:15.474Z,103492.62
2019-02-23T06:52:47.256Z,103483.00
2019-02-23T06:55:19.138Z,103467.73
2019-02-23T06:57:52.103Z,103475.65
2019-02-23T07:00:24.226Z,103483.36
2019-02-23T07:02:56.039Z,103506.08
2019-02-23T07:05:28.044Z,103516.22
2019-02-23T07:07:59.846Z,103522.63
2019-02-23T07:10:32.174Z,103525.20
2019-02-23T07:13:03.936Z,103514.50
2019-02-23T07:15:36.363Z,103498.73
2019-02-23T07:18:08.260Z,103506.42
2019-02-23T07:20:44.151Z,103511.59
2019-02-23T07:23:13.896Z,103521.44
2019-02-23T07:25:46.588Z,103529.45
2019-02-23T07:28:18.457Z,103537.19
2019-02-23T07:30:50.875Z,103548.37
2019-02-23T07:33:32.368Z,103547.78
2019-02-23T07:35:56.522Z,103541.45
2019-02-23T07:38:28.341Z,103526.62
2019-02-23T07:41:00.488Z,103538.77
2019-02-23T07:43:32.272Z,103547.99
2019-02-23T07:46:04.196Z,103548.17
2019-02-23T07:48:37.418Z,103560.04
2019-02-23T07:51:09.448Z,103562.06
2019-02-23T07:53:41.271Z,103556.32
2019-02-23T07:56:13.204Z,103567.67
2019-02-23T07:58:45.103Z,103557.52
2019-02-23T08:01:17.044Z,103567.48
2019-02-23T08:03:48.902Z,103566.52
2019-02-23T08:06:22.036Z,103571.31
2019-02-23T08:08:53.808Z,103567.73
2019-02-23T08:11:27.050Z,103551.80
2019-02-23T08:13:58.830Z,103542.05
2019-02-23T08:16:31.018Z,103539.28
2019-02-23T08:19:02.782Z,103525.18
2019-02-23T08:21:37.744Z,103513.16
2019-02-23T08:24:09.579Z,103505.98
2019-02-23T08:26:41.743Z,103503.02
2019-02-23T08:29:13.516Z,103502.59
2019-02-23T08:31:45.461Z,103505.98
2019-02-23T08:34:17.361Z,103517.48
2019-02-23T08:36:49.420Z,103514.91
2019-02-23T08:39:21.214Z,103494.16
2019-02-23T08:41:53.180Z,103474.98
2019-02-23T08:44:27.772Z,103473.99
2019-02-23T08:46:59.909Z,103473.60
2019-02-23T08:49:31.704Z,103488.54
2019-02-23T08:52:03.840Z,103494.37
2019-02-23T08:54:35.637Z,103510.00
2019-02-23T08:57:07.675Z,103501.84
2019-02-23T08:59:39.438Z,103510.61
2019-02-23T09:02:11.586Z,103522.72
2019-02-23T09:04:45.706Z,103527.70
2019-02-23T09:07:17.865Z,103516.80
2019-02-23T09:09:49.717Z,103507.98
2019-02-23T09:12:22.220Z,103494.48
2019-02-23T09:14:53.949Z,103503.33
2019-02-23T09:17:26.061Z,103519.52
2019-02-23T09:19:57.847Z,103522.34
2019-02-23T09:22:29.714Z,103520.52
2019-02-23T09:25:01.538Z,103515.59
2019-02-23T09:27:39.808Z,103513.52
2019-02-23T09:30:12.315Z,103519.67
2019-02-23T09:32:44.485Z,103525.86
2019-02-23T09:35:16.254Z,103518.97
2019-02-23T09:37:48.212Z,103523.53
2019-02-23T09:40:20.023Z,103518.44
2019-02-23T09:42:52.423Z,103526.98
2019-02-23T09:45:24.197Z,103528.80
2019-02-23T09:47:56.367Z,103528.69
2019-02-23T09:50:28.154Z,103527.50
2019-02-23T09:53:10.440Z,103520.96
2019-02-23T09:55:33.772Z,103511.80
2019-02-23T09:58:07.282Z,103503.94
2019-02-23T10:00:39.447Z,103500.19
2019-02-23T10:03:11.312Z,103500.09
2019-02-23T10:05:43.066Z,103495.69
2019-02-23T10:08:15.143Z,103495.22
2019-02-23T10:10:46.887Z,103481.50
2019-02-23T10:13:19.133Z,103473.73
2019-02-23T10:15:50.868Z,103462.57
2019-02-23T10:18:22.712Z,103469.50
2019-02-23T10:20:54.481Z,103469.70
2019-02-23T10:23:26.417Z,103466.94
2019-02-23T10:25:58.494Z,103455.10
2019-02-23T10:28:30.663Z,103455.53
2019-02-23T10:31:02.463Z,103472.33
2019-02-23T10:33:37.135Z,103476.25
2019-02-23T10:36:08.126Z,103477.37
2019-02-23T10:38:42.697Z,103478.55
2019-02-23T10:41:14.506Z,103467.28
2019-02-23T10:43:46.534Z,103466.73
2019-02-23T10:46:18.274Z,103449.67
2019-02-23T10:48:50.350Z,103444.02
2019-02-23T10:51:22.115Z,103459.89
2019-02-23T10:53:54.375Z,103462.22
2019-02-23T10:56:26.155Z,103448.62
2019-02-23T10:58:58.814Z,103449.20
2019-02-23T11:01:30.735Z,103424.53
2019-02-23T11:04:04.391Z,103436.24
2019-02-23T11:06:38.450Z,103421.16
2019-02-23T11:09:17.114Z,103416.45
2019-02-23T11:11:48.891Z,103426.40
2019-02-23T11:14:20.956Z,103428.50
2019-02-23T11:16:53.900Z,103430.61
2019-02-23T11:19:25.792Z,103426.73
2019-02-23T11:21:58.674Z,103432.63
2019-02-23T11:24:30.624Z,103439.86
2019-02-23T11:27:02.486Z,103433.66
2019-02-23T11:29:34.863Z,103426.84
2019-02-23T11:32:06.666Z,103438.23
2019-02-23T11:34:38.491Z,103427.52
2019-02-23T11:37:11.707Z,103406.46
2019-02-23T11:39:43.655Z,103417.39
2019-02-23T11:42:16.489Z,103417.33
2019-02-23T11:44:48.577Z,103413.79
2019-02-23T11:47:20.346Z,103416.03
2019-02-23T11:49:52.359Z,103422.87
2019-02-23T11:52:24.738Z,103418.38
2019-02-23T11:54:56.758Z,103418.44
2019-02-23T11:57:28.566Z,103394.68
2019-02-23T12:00:00.897Z,103386.77
2019-02-23T12:02:32.878Z,103394.00
2019-02-23T12:05:05.052Z,103395.67
2019-02-23T12:07:36.838Z,103384.95
2019-02-23T12:10:11.618Z,103380.62
2019-02-23T12:12:43.797Z,103390.51
2019-02-23T12:15:16.263Z,103387.30
2019-02-23T12:17:48.053Z,103394.92
2019-02-23T12:20:19.873Z,103392.96
2019-02-23T12:22:51.732Z,103384.50
2019-02-23T12:25:23.928Z,103398.56
2019-02-23T12:27:55.685Z,103398.56
2019-02-23T12:30:27.698Z,103380.50
2019-02-23T12:32:59.515Z,103373.20
2019-02-23T12:35:31.887Z,103379.58
2019-02-23T12:38:03.789Z,103393.41
2019-02-23T12:40:36.934Z,103378.57
2019-02-23T12:43:08.695Z,103357.34
2019-02-23T12:45:41.048Z,103363.81
2019-02-23T12:48:12.915Z,103360.06
2019-02-23T12:50:47.635Z,103359.77
2019-02-23T12:53:19.482Z,103360.56
2019-02-23T12:55:51.564Z,103365.31
2019-02-23T12:58:23.370Z,103363.94
2019-02-23T13:00:55.812Z,103359.22
2019-02-23T13:03:27.588Z,103357.97
2019-02-23T13:06:00.047Z,103356.15
2019-02-23T13:09:32.475Z,103360.70
2019-02-23T13:12:51.897Z,103358.01
2019-02-23T13:15:49.833Z,103364.63
2019-02-23T13:19:04.757Z,103374.20
2019-02-23T13:22:37.347Z,103368.55
2019-02-23T13:26:27.320Z,103352.08
2019-02-23T13:29:49.226Z,103341.92
2019-02-23T13:33:32.096Z,103332.23
2019-02-23T13:37:02.939Z,103312.27
2019-02-23T13:40:20.648Z,103317.97
2019-02-23T13:44:19.393Z,103318.89
2019-02-23T13:47:48.257Z,103308.84
2019-02-23T13:50:50.688Z,103309.75
2019-02-23T13:54:38.547Z,103306.37
2019-02-23T13:57:46.271Z,103317.15
2019-02-23T14:01:23.273Z,103320.00
2019-02-23T14:04:32.703Z,103325.84
2019-02-23T14:08:06.231Z,103336.30
2019-02-23T14:11:35.108Z,103340.64
2019-02-23T14:15:05.506Z,103337.44
2019-02-23T14:18:35.708Z,103344.55
2019-02-23T14:21:35.598Z,103326.25
2019-02-23T14:24:50.964Z,103337.05
2019-02-23T14:28:12.607Z,103340.54
2019-02-23T14:31:49.514Z,103350.53
2019-02-23T14:35:21.852Z,103352.59
2019-02-23T14:38:30.510Z,103338.30
2019-02-23T14:41:33.252Z,103322.92
2019-02-23T14:44:42.167Z,103315.91
2019-02-23T14:47:50.044Z,103324.48
2019-02-23T14:51:17.867Z,103327.94
2019-02-23T14:55:08.535Z,103302.28
2019-02-23T14:58:38.224Z,103308.86
2019-02-23T15:01:34.355Z,103298.34
2019-02-23T15:04:45.897Z,103305.39
2019-02-23T15:08:10.446Z,103285.59
2019-02-23T15:11:26.320Z,103282.16
2019-02-23T15:14:32.110Z,103284.00
2019-02-23T15:17:49.047Z,103284.47
2019-02-23T15:21:32.854Z,103280.90
2019-02-23T15:25:12.938Z,103281.53
2019-02-23T15:28:30.331Z,103280.69
2019-02-23T15:32:04.019Z,103281.84
2019-02-23T15:35:25.330Z,103277.06
2019-02-23T15:38:55.787Z,103284.88
2019-02-23T15:42:33.838Z,103296.61
2019-02-23T15:46:34.276Z,103293.18
2019-02-23T15:49:28.991Z,103277.69
2019-02-23T15:52:02.774Z,103272.77
2019-02-23T15:54:34.852Z,103266.20
2019-02-23T15:57:07.244Z,103275.30
2019-02-23T15:59:39.284Z,103283.00
2019-02-23T16:02:14.236Z,103265.66
2019-02-23T16:04:48.032Z,103258.66
2019-02-23T16:07:19.970Z,103253.87
2019-02-23T16:09:51.917Z,103253.37
2019-02-23T16:12:25.011Z,103248.95
2019-02-23T16:14:56.975Z,103248.12
2019-02-23T16:17:28.894Z,103243.37
2019-02-23T16:20:01.271Z,103216.00
2019-02-23T16:22:33.503Z,103215.58
2019-02-23T16:25:05.675Z,103209.72
2019-02-23T16:27:37.948Z,103191.48
2019-02-23T16:30:10.924Z,103187.97
2019-02-23T16:32:42.730Z,103176.55
2019-02-23T16:35:14.748Z,103173.02
2019-02-23T16:37:46.534Z,103174.64
2019-02-23T16:40:18.581Z,103170.39
2019-02-23T16:42:51.587Z,103163.39
2019-02-23T16:45:23.549Z,103159.75
2019-02-23T16:48:00.681Z,103147.18
2019-02-23T16:50:32.882Z,103144.70
2019-02-23T16:53:04.689Z,103135.61
2019-02-23T16:55:36.669Z,103141.36
2019-02-23T16:58:09.653Z,103134.74
2019-02-23T17:00:41.573Z,103136.70
2019-02-23T17:03:13.476Z,103134.01
2019-02-23T17:05:45.376Z,103144.08
2019-02-23T17:08:17.226Z,103152.89
2019-02-23T17:10:49.103Z,103148.43
2019-02-23T17:13:24.472Z,103144.91
2019-02-23T17:15:56.267Z,103130.84
2019-02-23T17:18:28.105Z,103135.30
2019-02-23T17:21:00.076Z,103135.38
2019-02-23T17:23:31.891Z,103129.62
2019-02-23T17:26:04.693Z,103122.03
2019-02-23T17:28:37.029Z,103128.47
2019-02-23T17:31:10.251Z,103120.25
2019-02-23T17:33:42.581Z,103112.05
2019-02-23T17:36:14.784Z,103117.23
2019-02-23T17:38:46.587Z,103112.41
2019-02-23T17:41:18.835Z,103097.66
2019-02-23T17:43:54.061Z,103103.22
2019-02-23T17:46:25.183Z,103101.14
2019-02-23T17:48:56.953Z,103088.61
2019-02-23T17:51:29.129Z,103095.50
2019-02-23T17:54:01.001Z,103096.23
2019-02-23T17:56:32.931Z,103099.55
2019-02-23T17:59:05.036Z,103093.66
2019-02-23T18:01:38.336Z,103096.75
2019-02-23T18:04:10.175Z,103095.02
2019-02-23T18:06:42.073Z,103091.80
2019-02-23T18:09:14.069Z,103095.50
2019-02-23T18:11:46.176Z,103094.26
2019-02-23T18:14:18.311Z,103095.77
2019-02-23T18:16:50.246Z,103095.93
2019-02-23T18:19:22.165Z,103103.86
2019-02-23T18:21:54.350Z,103102.61
2019-02-23T18:24:26.369Z,103108.55
2019-02-23T18:27:00.007Z,103117.24
2019-02-23T18:29:32.338Z,103119.44
2019-02-23T18:32:04.557Z,103110.57
2019-02-23T18:34:39.253Z,103117.50
2019-02-23T18:37:11.450Z,103122.75
2019-02-23T18:39:43.306Z,103109.75
2019-02-23T18:42:15.708Z,103097.61
2019-02-23T18:44:47.650Z,103105.49
2019-02-23T18:47:19.838Z,103104.80
2019-02-23T18:49:51.870Z,103107.55
2019-02-23T18:52:23.948Z,103107.89
2019-02-23T18:54:56.000Z,103103.08
2019-02-23T18:57:31.039Z,103099.63
2019-02-23T19:00:03.372Z,103095.33
2019-02-23T19:02:37.193Z,103083.66
2019-02-23T19:05:11.849Z,103089.56
2019-02-23T19:07:44.163Z,103096.63
2019-02-23T19:10:15.476Z,103100.62
2019-02-23T19:12:47.547Z,103103.67
2019-02-23T19:15:21.358Z,103101.69
2019-02-23T19:17:55.171Z,103094.84
2019-02-23T19:20:27.099Z,103089.67
2019-02-23T19:22:59.395Z,103083.64
2019-02-23T19:25:31.303Z,103081.95
2019-02-23T19:28:03.514Z,103072.02
2019-02-23T19:30:35.832Z,103062.46
2019-02-23T19:33:08.175Z,103061.21
2019-02-23T19:35:41.749Z,103050.20
2019-02-23T19:38:14.203Z,103041.75
2019-02-23T19:40:46.257Z,103056.51
2019-02-23T19:43:19.063Z,103054.91
2019-02-23T19:45:51.962Z,103044.57
2019-02-23T19:48:25.275Z,103037.25
2019-02-23T19:51:04.108Z,103042.30
2019-02-23T19:53:38.270Z,103046.30
2019-02-23T19:56:12.027Z,103049.03
2019-02-23T19:58:45.695Z,103046.84
2019-02-23T20:01:19.396Z,103046.84
2019-02-23T20:03:53.282Z,103038.19
2019-02-23T20:06:26.121Z,103047.98
2019-02-23T20:08:58.628Z,103043.63
2019-02-23T20:11:32.010Z,103046.09
2019-02-23T20:14:05.344Z,103054.71
2019-02-23T20:16:38.803Z,103041.40
2019-02-23T20:19:12.735Z,103039.52
2019-02-23T20:21:45.777Z,103049.70
2019-02-23T20:24:19.540Z,103053.88
2019-02-23T20:26:55.686Z,103050.05
2019-02-23T20:29:28.487Z,103048.95
2019-02-23T20:32:01.845Z,103045.04
2019-02-23T20:34:35.319Z,103039.33
2019-02-23T20:37:09.169Z,103040.89
2019-02-23T20:39:42.817Z,103028.12
2019-02-23T20:42:16.962Z,103030.39
2019-02-23T20:44:50.738Z,103031.61
2019-02-23T20:47:24.090Z,103033.72
2019-02-23T20:50:00.262Z,103030.99
2019-02-23T20:52:34.188Z,103024.41
2019-02-23T20:55:09.427Z,103021.23
2019-02-23T20:57:42.943Z,103017.45
2019-02-23T21:00:15.708Z,103016.42
2019-02-23T21:02:50.117Z,103006.24
2019-02-23T21:05:24.049Z,103006.33
2019-02-23T21:07:57.268Z,103007.53
2019-02-23T21:10:31.128Z,103010.03
2019-02-23T21:13:03.781Z,102993.28
2019-02-23T21:15:37.080Z,102984.00
2019-02-23T21:18:09.772Z,102984.64
2019-02-23T21:20:42.299Z,102996.56
2019-02-23T21:23:15.007Z,103002.88
2019-02-23T21:25:48.252Z,102992.69
2019-02-23T21:28:20.702Z,102987.80
2019-02-23T21:30:53.342Z,102981.56
2019-02-23T21:33:25.834Z,102968.20
2019-02-23T21:35:58.479Z,102968.38
2019-02-23T21:38:30.470Z,102959.20
2019-02-23T21:41:03.012Z,102961.45
2019-02-23T21:43:35.166Z,102965.05
2019-02-23T21:46:07.552Z,102960.31
2019-02-23T21:48:41.204Z,102962.53
2019-02-23T21:51:15.576Z,102959.95
2019-02-23T21:53:47.187Z,102965.44
2019-02-23T21:56:19.346Z,102965.11
2019-02-23T21:58:51.234Z,102951.92
2019-02-23T22:01:24.591Z,102943.53
2019-02-23T22:03:56.812Z,102945.40
2019-02-23T22:06:29.038Z,102946.55
2019-02-23T22:09:00.852Z,102937.11
2019-02-23T22:11:34.725Z,102928.92
2019-02-23T22:14:06.623Z,102938.63
2019-02-23T22:16:38.562Z,102942.33
2019-02-23T22:19:10.756Z,102941.14
2019-02-23T22:21:42.980Z,102946.38
2019-02-23T22:24:14.863Z,102938.87
2019-02-23T22:26:46.987Z,102934.14
2019-02-23T22:29:18.813Z,102943.33
2019-02-23T22:31:50.713Z,102945.69
2019-02-23T22:34:22.597Z,102940.05
2019-02-23T22:36:54.493Z,102932.74
2019-02-23T22:39:26.285Z,102924.41
2019-02-23T22:41:58.357Z,102920.47
2019-02-23T22:44:30.257Z,102916.62
2019-02-23T22:47:02.594Z,102915.43
2019-02-23T22:49:37.101Z,102920.77
2019-02-23T22:52:09.309Z,102919.77
2019-02-23T22:54:41.172Z,102910.92
2019-02-23T22:57:13.188Z,102903.99
2019-02-23T22:59:45.022Z,102909.09
2019-02-23T23:02:17.157Z,102918.14
2019-02-23T23:04:50.193Z,102911.74
2019-02-23T23:07:22.318Z,102915.30
2019-02-23T23:09:54.102Z,102928.26
2019-02-23T23:12:26.133Z,102921.72
2019-02-23T23:14:57.900Z,102914.47
2019-02-23T23:17:30.061Z,102919.28
2019-02-23T23:20:02.099Z,102914.12
2019-02-23T23:22:35.276Z,102912.55
2019-02-23T23:25:07.963Z,102908.63
2019-02-23T23:27:39.954Z,102907.28
2019-02-23T23:30:11.743Z,102907.84
2019-02-23T23:32:43.816Z,102909.03
2019-02-23T23:35:16.144Z,102899.16
2019-02-23T23:37:49.470Z,102898.09
2019-02-23T23:40:21.337Z,102887.59
2019-02-23T23:42:58.121Z,102892.06
2019-02-23T23:45:27.097Z,102884.08
2019-02-23T23:47:59.353Z,102883.95
2019-02-23T23:50:31.700Z,102873.05
2019-02-23T23:53:03.899Z,102867.18
2019-02-23T23:55:35.797Z,102875.30
2019-02-23T23:58:07.607Z,102870.36
